createdAt,value
2023-04-15T00:01:48.605Z,9.99
2023-04-15T00:06:53.316Z,9.91
2023-04-15T00:11:54.769Z,9.88
2023-04-15T00:16:56.423Z,9.72
2023-04-15T00:21:58.029Z,9.60
2023-04-15T00:26:59.716Z,9.55
2023-04-15T00:32:01.191Z,9.55
2023-04-15T00:37:03.107Z,9.55
2023-04-15T00:42:05.429Z,9.50
2023-04-15T00:47:07.397Z,9.48
2023-04-15T00:52:08.927Z,9.43
2023-04-15T00:57:10.399Z,9.21
2023-04-15T01:02:12.159Z,9.21
2023-04-15T01:07:13.906Z,9.23
2023-04-15T01:12:16.597Z,9.09
2023-04-15T01:17:18.128Z,9.19
2023-04-15T01:22:19.698Z,9.22
2023-04-15T01:27:21.906Z,9.25
2023-04-15T01:32:23.629Z,9.17
2023-04-15T01:37:26.735Z,9.25
2023-04-15T01:42:28.265Z,9.35
2023-04-15T01:47:29.779Z,9.48
2023-04-15T01:52:31.246Z,9.59
2023-04-15T01:57:32.716Z,9.54
2023-04-15T02:02:34.278Z,9.48
2023-04-15T02:07:35.840Z,9.39
2023-04-15T02:12:37.288Z,9.27
2023-04-15T02:17:39.078Z,9.09
2023-04-15T02:22:42.237Z,8.91
2023-04-15T02:27:43.894Z,8.96
2023-04-15T02:32:45.722Z,9.07
2023-04-15T02:37:47.255Z,9.02
2023-04-15T02:42:48.833Z,9.02
2023-04-15T02:47:52.658Z,9.13
2023-04-15T02:52:54.782Z,9.07
2023-04-15T02:57:56.304Z,8.99
2023-04-15T03:03:02.352Z,9.07
2023-04-15T03:08:04.083Z,9.17
2023-04-15T03:13:05.837Z,9.21
2023-04-15T03:18:07.367Z,9.21
2023-04-15T03:23:09.404Z,9.07
2023-04-15T03:28:11.346Z,8.84
2023-04-15T03:33:12.890Z,8.76
2023-04-15T03:38:14.642Z,8.68
2023-04-15T03:43:16.131Z,8.61
2023-04-15T03:48:18.295Z,8.64
2023-04-15T03:53:21.664Z,8.68
2023-04-15T03:58:23.120Z,8.78
2023-04-15T04:03:24.890Z,8.85
2023-04-15T04:08:26.492Z,8.80
2023-04-15T04:13:28.013Z,8.69
2023-04-15T04:18:29.447Z,8.66
2023-04-15T04:23:30.924Z,8.60
2023-04-15T04:28:32.373Z,8.65
2023-04-15T04:33:34.144Z,8.82
2023-04-15T04:38:35.686Z,8.84
2023-04-15T04:43:37.161Z,8.84
2023-04-15T04:48:38.593Z,8.80
2023-04-15T04:53:40.014Z,8.86
2023-04-15T04:58:41.480Z,8.97
2023-04-15T05:03:43.019Z,9.02
2023-04-15T05:08:45.068Z,8.96
2023-04-15T05:13:46.582Z,8.92
2023-04-15T05:18:48.129Z,8.89
2023-04-15T05:23:49.754Z,8.89
2023-04-15T05:28:51.201Z,9.00
2023-04-15T05:33:52.791Z,9.04
2023-04-15T05:38:54.242Z,9.30
2023-04-15T05:43:55.739Z,9.51
2023-04-15T05:48:57.216Z,9.70
2023-04-15T05:53:58.706Z,9.79
2023-04-15T05:59:00.321Z,9.93
2023-04-15T06:04:01.991Z,10.06
2023-04-15T06:09:04.260Z,10.19
2023-04-15T06:14:05.921Z,10.30
2023-04-15T06:19:07.412Z,10.36
2023-04-15T06:24:08.935Z,10.45
2023-04-15T06:29:10.395Z,10.42
2023-04-15T06:34:11.839Z,10.54
2023-04-15T06:39:13.258Z,10.47
2023-04-15T06:44:14.736Z,10.42
2023-04-15T06:49:16.179Z,10.50
2023-04-15T06:54:17.692Z,10.56
2023-04-15T06:59:19.193Z,10.65
2023-04-15T07:04:20.754Z,10.91
2023-04-15T07:09:25.370Z,11.00
2023-04-15T07:14:26.822Z,11.08
2023-04-15T07:19:28.300Z,11.19
2023-04-15T07:24:29.893Z,11.19
2023-04-15T07:29:31.346Z,11.31
2023-04-15T07:34:32.895Z,11.50
2023-04-15T07:39:34.404Z,11.66
2023-04-15T07:44:35.846Z,11.81
2023-04-15T07:49:37.315Z,11.82
2023-04-15T07:54:38.823Z,11.86
2023-04-15T07:59:40.354Z,11.98
2023-04-15T08:04:42.117Z,12.08
2023-04-15T08:09:44.074Z,12.39
2023-04-15T08:14:45.608Z,12.42
2023-04-15T08:19:47.051Z,12.45
2023-04-15T08:24:48.567Z,12.62
2023-04-15T08:29:50.006Z,12.87
2023-04-15T08:34:51.524Z,13.11
2023-04-15T08:39:52.981Z,13.46
2023-04-15T08:44:55.437Z,13.68
2023-04-15T08:49:58.234Z,13.93
2023-04-15T08:55:00.314Z,14.11
2023-04-15T09:00:05.355Z,14.40
2023-04-15T09:05:07.905Z,14.65
2023-04-15T09:10:10.115Z,14.61
2023-04-15T09:15:12.034Z,14.78
2023-04-15T09:20:15.069Z,14.99
2023-04-15T09:25:22.282Z,15.35
2023-04-15T09:30:24.285Z,15.67
2023-04-15T09:35:27.261Z,15.76
2023-04-15T09:40:36.942Z,15.52
2023-04-15T09:45:38.496Z,15.38
2023-04-15T09:50:42.156Z,15.66
2023-04-15T09:55:57.268Z,15.46
2023-04-15T10:01:00.126Z,15.23
2023-04-15T10:06:02.306Z,15.34
2023-04-15T10:11:04.413Z,15.21
2023-04-15T10:16:16.027Z,15.16
2023-04-15T10:21:18.921Z,15.20
2023-04-15T10:26:21.393Z,15.16
2023-04-15T10:31:23.730Z,15.05
2023-04-15T10:36:25.637Z,15.31
2023-04-15T10:41:28.643Z,15.41
2023-04-15T10:46:39.018Z,15.61
2023-04-15T10:51:43.674Z,15.85
2023-04-15T10:56:45.615Z,16.09
2023-04-15T11:01:51.248Z,16.23
2023-04-15T11:07:05.656Z,16.38
2023-04-15T11:12:10.085Z,16.44
2023-04-15T11:17:11.682Z,16.41
2023-04-15T11:22:13.183Z,16.67
2023-04-15T11:27:23.942Z,16.84
2023-04-15T11:32:25.458Z,16.94
2023-04-15T11:37:30.332Z,16.93
2023-04-15T11:42:42.819Z,16.67
2023-04-15T11:47:50.454Z,16.65
2023-04-15T11:53:00.293Z,16.56
2023-04-15T11:58:14.459Z,16.54
2023-04-15T12:03:21.254Z,16.63
2023-04-15T12:08:22.872Z,16.62
2023-04-15T12:13:24.317Z,16.69
2023-04-15T12:18:25.782Z,16.65
2023-04-15T12:23:27.281Z,16.57
2023-04-15T12:28:30.752Z,16.60
2023-04-15T12:33:35.339Z,16.67
2023-04-15T12:38:36.827Z,16.55
2023-04-15T12:43:38.276Z,16.36
2023-04-15T12:48:40.434Z,16.33
2023-04-15T12:53:41.964Z,16.39
2023-04-15T12:58:43.447Z,16.40
2023-04-15T13:03:45.070Z,16.40
2023-04-15T13:08:57.185Z,16.36
2023-04-15T13:14:07.709Z,16.42
2023-04-15T13:19:10.354Z,16.38
2023-04-15T13:24:11.815Z,16.28
2023-04-15T13:29:13.325Z,16.19
2023-04-15T13:34:14.757Z,16.16
2023-04-15T13:39:16.196Z,16.11
2023-04-15T13:44:17.646Z,15.91
2023-04-15T13:49:21.312Z,16.00
2023-04-15T13:54:22.756Z,16.09
2023-04-15T13:59:24.197Z,16.08
2023-04-15T14:04:25.961Z,16.04
2023-04-15T14:09:28.100Z,16.01
2023-04-15T14:14:29.801Z,15.72
2023-04-15T14:19:32.179Z,15.45
2023-04-15T14:24:33.648Z,15.44
2023-04-15T14:29:35.139Z,15.26
2023-04-15T14:34:36.638Z,15.35
2023-04-15T14:39:38.115Z,15.45
2023-04-15T14:44:39.566Z,15.12
2023-04-15T14:49:41.086Z,14.81
2023-04-15T14:54:42.551Z,14.81
2023-04-15T14:59:44.069Z,14.99
2023-04-15T15:04:45.652Z,15.03
2023-04-15T15:09:47.263Z,14.94
2023-04-15T15:14:49.041Z,14.94
2023-04-15T15:19:50.590Z,14.63
2023-04-15T15:24:52.106Z,14.21
2023-04-15T15:29:53.556Z,13.81
2023-04-15T15:34:55.174Z,13.59
2023-04-15T15:39:56.690Z,13.39
2023-04-15T15:44:58.159Z,13.47
2023-04-15T15:50:00.451Z,13.59
2023-04-15T15:55:01.969Z,13.71
2023-04-15T16:05:08.366Z,13.88
2023-04-15T16:10:10.051Z,13.69
2023-04-15T16:15:12.516Z,13.62
2023-04-15T16:20:14.024Z,13.69
2023-04-15T16:25:15.583Z,13.53
2023-04-15T16:30:17.123Z,13.58
2023-04-15T16:35:18.665Z,13.44
2023-04-15T16:40:20.128Z,13.33
2023-04-15T16:45:21.623Z,13.27
2023-04-15T16:50:23.101Z,13.00
2023-04-15T16:55:24.637Z,13.05
2023-04-15T17:00:26.152Z,13.14
2023-04-15T17:05:27.810Z,13.01
2023-04-15T17:10:30.877Z,12.90
2023-04-15T17:15:32.340Z,13.12
2023-04-15T17:20:34.315Z,12.89
2023-04-15T17:25:35.816Z,12.91
2023-04-15T17:30:37.296Z,12.93
2023-04-15T17:35:39.378Z,13.00
2023-04-15T17:40:40.844Z,13.13
2023-04-15T17:45:42.316Z,13.18
2023-04-15T17:50:43.798Z,13.44
2023-04-15T17:55:45.302Z,13.53
2023-04-15T18:00:47.475Z,13.60
2023-04-15T18:05:49.103Z,13.67
2023-04-15T18:10:50.587Z,13.62
2023-04-15T18:15:52.064Z,13.59
2023-04-15T18:20:53.593Z,13.42
2023-04-15T18:25:55.126Z,13.34
2023-04-15T18:30:56.702Z,13.24
2023-04-15T18:35:58.356Z,13.20
2023-04-15T18:40:59.907Z,12.84
2023-04-15T18:46:01.507Z,12.57
2023-04-15T18:51:03.085Z,12.62
2023-04-15T18:56:04.741Z,12.74
2023-04-15T19:01:06.292Z,12.83
2023-04-15T19:06:07.776Z,12.70
2023-04-15T19:11:09.300Z,12.49
2023-04-15T19:16:10.808Z,12.43
2023-04-15T19:21:12.931Z,12.42
2023-04-15T19:26:14.408Z,12.43
2023-04-15T19:31:15.961Z,12.54
2023-04-15T19:36:17.536Z,12.56
2023-04-15T19:41:18.963Z,12.68
2023-04-15T19:46:20.533Z,12.69
2023-04-15T19:51:22.284Z,12.65
2023-04-15T19:56:24.013Z,12.60
2023-04-15T20:01:25.699Z,12.57
2023-04-15T20:06:27.159Z,12.81
2023-04-15T20:12:05.032Z,13.01
2023-04-15T20:16:50.098Z,12.95
2023-04-15T20:21:52.683Z,12.93
2023-04-15T20:26:54.220Z,13.02
2023-04-15T20:31:55.657Z,12.98
2023-04-15T20:36:57.136Z,12.74
2023-04-15T20:41:58.648Z,12.83
2023-04-15T20:47:00.194Z,12.79
2023-04-15T20:52:02.414Z,12.87
2023-04-15T20:57:03.874Z,12.90
2023-04-15T21:02:05.462Z,12.89
2023-04-15T21:07:06.957Z,12.76
2023-04-15T21:12:09.066Z,12.65
2023-04-15T21:17:11.303Z,12.42
2023-04-15T21:22:13.014Z,12.27
2023-04-15T21:27:14.457Z,11.97
2023-04-15T21:32:16.087Z,11.85
2023-04-15T21:37:17.594Z,11.74
2023-04-15T21:42:19.080Z,11.90
2023-04-15T21:47:20.594Z,11.99
2023-04-15T21:52:22.177Z,11.90
2023-04-15T21:57:23.679Z,11.79
2023-04-15T22:02:25.252Z,11.85
2023-04-15T22:07:26.792Z,11.73
2023-04-15T22:12:28.284Z,11.80
2023-04-15T22:17:29.773Z,11.82
2023-04-15T22:22:41.429Z,11.92
2023-04-15T22:27:45.202Z,11.77
2023-04-15T22:32:46.730Z,11.60
2023-04-15T22:37:48.258Z,11.37
2023-04-15T22:42:49.854Z,11.30
2023-04-15T22:47:53.631Z,11.44
2023-04-15T22:52:55.149Z,11.52
2023-04-15T22:57:56.652Z,11.65
2023-04-15T23:02:58.328Z,11.74
2023-04-15T23:07:59.944Z,11.44
2023-04-15T23:13:01.378Z,11.50
2023-04-15T23:18:02.945Z,11.68
2023-04-15T23:23:04.493Z,11.76
2023-04-15T23:28:06.104Z,11.92
2023-04-15T23:33:07.552Z,11.99
2023-04-15T23:38:09.084Z,12.02
2023-04-15T23:43:10.564Z,12.13
2023-04-15T23:48:12.074Z,12.11
2023-04-15T23:53:13.569Z,12.00
2023-04-15T23:58:15.065Z,12.08
